Terminal Aerodrome Forecast
Issued by NWS Duluth, MN

Home | Current Version | Previous Version | Text Only | Print | Product List | Glossary On
Versions: 1 2 3 4 5 6 7 8 9 10 11 12 13 14 15 16 17 18 19 20 21 22
156
FTUS43 KDLH 270941 AAC
TAFINL
TAF AMD
KINL 270941Z 2710/2806 00000KT 1SM BR SKC
      TEMPO 2710/2711 1/4SM FG
     FM271500 35004KT P6SM FEW050
     FM271800 01005KT P6SM VCSH BKN050
     FM280000 00000KT P6SM SKC=

USA.gov is the U.S. government's official web portal to all federal, state and local government web resources and services.